Main page
METAR-TAF:

METAR-TAF

Airports :

Payam International Airport

Karaj, Iran

latitude: 35-46-34N, longitude: 050-49-36E, elevation: 1271 m

Current weather observation

The report was made 43 minutes ago, at 15:00 UTC
Wind 16 kt from the Northwest
Temperature 21°C
Humidity 33%
Pressure 1015 hPa
Visibility: 6000 m
Few clouds at a height of 3000 ft, Cumulonimbus.
Few clouds at a height of 3500 ft
Broken clouds at a height of 10000 ft

METAR: OIIP 201500Z 32016KT 6000 FEW030CB FEW035 BKN100 21/04 Q1015

Time: 20:13 (15:43 UTC)


TAF: missing

Weather observations and forecasts of more than 4000 airports (METAR and TAF reports).

The available stations are represented by yellow and red dots on the map.

Hover mouse over dot to see the name of the station.

Then click to see weather observations and forecasts.

To change the map : click on the green buttons with a black cross to zoom in, on the green button with a dash to zoom out, or on the green arrows for adjacent maps.


METAR-TAF: